CheckWX is a tool to help pilots better visualize weather data.  It is not intended as a substitute for an official pre-flight weather briefing.

04:39:04 UTC

BGBW METAR
Narsarsuaq Airport
Narsarsuaq, Greenland
Current

49 mins ago

BGBW 200350Z 06005KT 9999 FEW011 SCT020 BKN160 M02/M06 Q1009
Observed
Nov-20 @ 03:50 UTC
Wind
  • 060° at 5 KTS
Visibility
10,000+ meters
Flight Rules
VFR
Cloud Levels
  • Few at 1,100' AGL
  • Scattered at 2,000' AGL
  • Broken at 16,000' AGL
Temperature
-2°C / 28°F
Dewpoint
-6°C / 21°F
Humidity
74%
Altimeter
29.79" Hg
Pressure
1008.92 hPa
Previous

2 hours ago

BGBW 200250Z 04004KT 9999 SCT015 BKN040 M02/M05 Q1010
Observed
Nov-20 @ 02:50 UTC
Wind
  • 040° at 4 KTS
Visibility
10,000+ meters
Flight Rules
VFR
Cloud Levels
  • Scattered at 1,500' AGL
  • Broken at 4,000' AGL
Temperature
-2°C / 28°F
Dewpoint
-5°C / 23°F
Humidity
80%
Altimeter
29.82" Hg
Pressure
1009.92 hPa
Previous

3 hours ago

BGBW 200150Z 10004KT 9999 FEW012 SCT040 M00/M05 Q1010
Observed
Nov-20 @ 01:50 UTC
Wind
  • 100° at 4 KTS
Visibility
10,000+ meters
Flight Rules
VFR
Cloud Levels
  • Few at 1,200' AGL
  • Scattered at 4,000' AGL
Temperature
C / 32°F
Dewpoint
-5°C / 23°F
Humidity
69%
Altimeter
29.82" Hg
Pressure
1009.92 hPa